sensor_id;sensor_type;location;lat;lon;timestamp;P1;durP1;ratioP1;P2;durP2;ratioP2
32106;SDS011;18622;51.998;10.440;2023-11-21T04:34:28;27.47;;;10.20;;
32106;SDS011;18622;51.998;10.440;2023-11-21T04:36:56;28.50;;;10.48;;
32106;SDS011;18622;51.998;10.440;2023-11-21T04:39:24;27.47;;;10.93;;
32106;SDS011;18622;51.998;10.440;2023-11-21T04:41:52;25.77;;;12.40;;
32106;SDS011;18622;51.998;10.440;2023-11-21T04:44:20;36.57;;;15.30;;
32106;SDS011;18622;51.998;10.440;2023-11-21T04:46:48;36.63;;;14.03;;
32106;SDS011;18622;51.998;10.440;2023-11-21T04:49:16;34.73;;;17.93;;
32106;SDS011;18622;51.998;10.440;2023-11-21T04:51:43;39.60;;;14.27;;
32106;SDS011;18622;51.998;10.440;2023-11-21T04:54:11;25.73;;;11.23;;
32106;SDS011;18622;51.998;10.440;2023-11-21T04:56:39;34.67;;;12.13;;
32106;SDS011;18622;51.998;10.440;2023-11-21T04:59:08;28.55;;;11.85;;
32106;SDS011;18622;51.998;10.440;2023-11-21T05:01:35;27.50;;;10.50;;
32106;SDS011;18622;51.998;10.440;2023-11-21T05:04:04;23.10;;;11.12;;
32106;SDS011;18622;51.998;10.440;2023-11-21T05:06:33;32.17;;;11.87;;
32106;SDS011;18622;51.998;10.440;2023-11-21T05:09:01;28.47;;;11.87;;
32106;SDS011;18622;51.998;10.440;2023-11-21T05:11:28;29.57;;;11.20;;
32106;SDS011;18622;51.998;10.440;2023-11-21T05:13:56;33.33;;;11.03;;
32106;SDS011;18622;51.998;10.440;2023-11-21T05:16:26;22.52;;;9.93;;
32106;SDS011;18622;51.998;10.440;2023-11-21T05:18:54;34.00;;;11.63;;
32106;SDS011;18622;51.998;10.440;2023-11-21T05:21:23;32.83;;;11.20;;
32106;SDS011;18622;51.998;10.440;2023-11-21T05:23:51;32.05;;;13.28;;
32106;SDS011;18622;51.998;10.440;2023-11-21T05:26:19;30.13;;;11.30;;
32106;SDS011;18622;51.998;10.440;2023-11-21T05:28:47;45.50;;;12.73;;
32106;SDS011;18622;51.998;10.440;2023-11-21T05:31:15;30.82;;;13.25;;
32106;SDS011;18622;51.998;10.440;2023-11-21T05:33:43;34.77;;;13.27;;
32106;SDS011;18622;51.998;10.440;2023-11-21T05:36:11;30.97;;;12.80;;
32106;SDS011;18622;51.998;10.440;2023-11-21T05:38:39;31.03;;;13.43;;
32106;SDS011;18622;51.998;10.440;2023-11-21T05:41:07;43.20;;;18.70;;
32106;SDS011;18622;51.998;10.440;2023-11-21T05:43:37;42.05;;;14.95;;
32106;SDS011;18622;51.998;10.440;2023-11-21T05:46:06;47.33;;;15.57;;
32106;SDS011;18622;51.998;10.440;2023-11-21T05:48:34;41.77;;;14.80;;
32106;SDS011;18622;51.998;10.440;2023-11-21T05:51:04;50.15;;;15.10;;
32106;SDS011;18622;51.998;10.440;2023-11-21T05:53:34;42.48;;;14.30;;
32106;SDS011;18622;51.998;10.440;2023-11-21T05:56:01;40.17;;;14.17;;
32106;SDS011;18622;51.998;10.440;2023-11-21T05:58:30;38.43;;;14.80;;
32106;SDS011;18622;51.998;10.440;2023-11-21T06:00:57;41.87;;;14.50;;
32106;SDS011;18622;51.998;10.440;2023-11-21T06:03:25;45.67;;;14.83;;
32106;SDS011;18622;51.998;10.440;2023-11-21T06:05:53;47.80;;;15.73;;
32106;SDS011;18622;51.998;10.440;2023-11-21T06:08:21;44.03;;;16.63;;
32106;SDS011;18622;51.998;10.440;2023-11-21T06:10:49;41.13;;;14.73;;
32106;SDS011;18622;51.998;10.440;2023-11-21T06:13:17;42.73;;;16.37;;
32106;SDS011;18622;51.998;10.440;2023-11-21T06:15:46;39.40;;;16.35;;
32106;SDS011;18622;51.998;10.440;2023-11-21T06:18:14;47.13;;;16.83;;
32106;SDS011;18622;51.998;10.440;2023-11-21T06:20:42;43.47;;;14.90;;
32106;SDS011;18622;51.998;10.440;2023-11-21T06:23:10;47.87;;;16.77;;
32106;SDS011;18622;51.998;10.440;2023-11-21T06:25:37;44.13;;;16.00;;
32106;SDS011;18622;51.998;10.440;2023-11-21T06:28:06;45.50;;;14.65;;
32106;SDS011;18622;51.998;10.440;2023-11-21T06:30:34;48.53;;;16.67;;
32106;SDS011;18622;51.998;10.440;2023-11-21T06:33:02;45.73;;;15.27;;
32106;SDS011;18622;51.998;10.440;2023-11-21T06:35:30;50.80;;;16.50;;
32106;SDS011;18622;51.998;10.440;2023-11-21T06:37:59;48.63;;;16.52;;
32106;SDS011;18622;51.998;10.440;2023-11-21T06:40:28;51.80;;;16.75;;
32106;SDS011;18622;51.998;10.440;2023-11-21T06:42:56;55.17;;;17.20;;
32106;SDS011;18622;51.998;10.440;2023-11-21T06:45:24;60.50;;;16.95;;
32106;SDS011;18622;51.998;10.440;2023-11-21T06:47:52;47.40;;;17.20;;
32106;SDS011;18622;51.998;10.440;2023-11-21T06:50:20;59.50;;;17.00;;
32106;SDS011;18622;51.998;10.440;2023-11-21T06:52:48;65.37;;;18.60;;
32106;SDS011;18622;51.998;10.440;2023-11-21T06:55:15;57.70;;;17.30;;
32106;SDS011;18622;51.998;10.440;2023-11-21T06:57:43;49.90;;;18.20;;
32106;SDS011;18622;51.998;10.440;2023-11-21T07:00:13;55.90;;;16.65;;
32106;SDS011;18622;51.998;10.440;2023-11-21T07:02:43;55.40;;;16.60;;
32106;SDS011;18622;51.998;10.440;2023-11-21T07:05:11;68.80;;;18.77;;
32106;SDS011;18622;51.998;10.440;2023-11-21T07:07:40;63.25;;;18.10;;
32106;SDS011;18622;51.998;10.440;2023-11-21T07:10:08;50.63;;;16.30;;
32106;SDS011;18622;51.998;10.440;2023-11-21T07:12:36;55.67;;;18.70;;
32106;SDS011;18622;51.998;10.440;2023-11-21T07:15:04;58.57;;;17.37;;
32106;SDS011;18622;51.998;10.440;2023-11-21T07:17:37;54.25;;;16.52;;
32106;SDS011;18622;51.998;10.440;2023-11-21T07:20:06;56.97;;;16.97;;
32106;SDS011;18622;51.998;10.440;2023-11-21T07:22:34;57.88;;;18.15;;
32106;SDS011;18622;51.998;10.440;2023-11-21T07:25:02;62.13;;;17.73;;
32106;SDS011;18622;51.998;10.440;2023-11-21T07:27:30;55.15;;;18.82;;
32106;SDS011;18622;51.998;10.440;2023-11-21T07:30:00;46.63;;;15.85;;
32106;SDS011;18622;51.998;10.440;2023-11-21T07:32:30;46.63;;;15.72;;
32106;SDS011;18622;51.998;10.440;2023-11-21T07:34:58;53.48;;;16.50;;
32106;SDS011;18622;51.998;10.440;2023-11-21T07:37:27;48.13;;;15.75;;
32106;SDS011;18622;51.998;10.440;2023-11-21T07:39:54;56.87;;;15.67;;
32106;SDS011;18622;51.998;10.440;2023-11-21T07:42:25;55.05;;;13.80;;
32106;SDS011;18622;51.998;10.440;2023-11-21T07:44:53;44.77;;;14.13;;
32106;SDS011;18622;51.998;10.440;2023-11-21T07:47:21;49.67;;;14.93;;
32106;SDS011;18622;51.998;10.440;2023-11-21T07:49:49;47.00;;;14.67;;
32106;SDS011;18622;51.998;10.440;2023-11-21T07:52:17;47.73;;;15.27;;
32106;SDS011;18622;51.998;10.440;2023-11-21T07:54:46;56.45;;;15.28;;
32106;SDS011;18622;51.998;10.440;2023-11-21T07:57:14;43.80;;;13.77;;
32106;SDS011;18622;51.998;10.440;2023-11-21T07:59:42;26.07;;;7.60;;
32106;SDS011;18622;51.998;10.440;2023-11-21T08:02:10;17.50;;;5.13;;
32106;SDS011;18622;51.998;10.440;2023-11-21T08:04:38;9.73;;;4.50;;
32106;SDS011;18622;51.998;10.440;2023-11-21T08:07:06;10.60;;;4.77;;
32106;SDS011;18622;51.998;10.440;2023-11-21T08:09:35;11.23;;;5.33;;
32106;SDS011;18622;51.998;10.440;2023-11-21T08:12:04;13.13;;;6.53;;
32106;SDS011;18622;51.998;10.440;2023-11-21T08:14:32;13.10;;;6.20;;
32106;SDS011;18622;51.998;10.440;2023-11-21T08:16:59;12.70;;;6.57;;
32106;SDS011;18622;51.998;10.440;2023-11-21T08:19:27;10.73;;;5.73;;
32106;SDS011;18622;51.998;10.440;2023-11-21T08:21:55;10.03;;;4.77;;
32106;SDS011;18622;51.998;10.440;2023-11-21T08:24:25;11.35;;;5.22;;
32106;SDS011;18622;51.998;10.440;2023-11-21T08:26:53;11.85;;;4.42;;
32106;SDS011;18622;51.998;10.440;2023-11-21T08:29:21;12.10;;;5.90;;
32106;SDS011;18622;51.998;10.440;2023-11-21T08:31:49;13.27;;;5.97;;
32106;SDS011;18622;51.998;10.440;2023-11-21T08:34:17;16.87;;;5.93;;
32106;SDS011;18622;51.998;10.440;2023-11-21T08:36:44;15.73;;;5.63;;
32106;SDS011;18622;51.998;10.440;2023-11-21T08:39:12;9.87;;;4.70;;
32106;SDS011;18622;51.998;10.440;2023-11-21T08:41:40;8.63;;;4.27;;
32106;SDS011;18622;51.998;10.440;2023-11-21T08:44:08;11.47;;;5.30;;
32106;SDS011;18622;51.998;10.440;2023-11-21T08:46:36;8.53;;;4.78;;
32106;SDS011;18622;51.998;10.440;2023-11-21T08:49:05;11.53;;;5.08;;
32106;SDS011;18622;51.998;10.440;2023-11-21T08:51:33;9.03;;;5.57;;
32106;SDS011;18622;51.998;10.440;2023-11-21T08:54:01;12.40;;;5.60;;
32106;SDS011;18622;51.998;10.440;2023-11-21T08:56:30;9.23;;;5.62;;
32106;SDS011;18622;51.998;10.440;2023-11-21T08:58:58;14.80;;;6.30;;
32106;SDS011;18622;51.998;10.440;2023-11-21T09:01:29;16.93;;;7.83;;
32106;SDS011;18622;51.998;10.440;2023-11-21T09:03:57;16.12;;;8.03;;
32106;SDS011;18622;51.998;10.440;2023-11-21T09:06:25;15.80;;;7.50;;
32106;SDS011;18622;51.998;10.440;2023-11-21T09:08:53;19.07;;;7.80;;
32106;SDS011;18622;51.998;10.440;2023-11-21T09:11:21;12.53;;;6.53;;
32106;SDS011;18622;51.998;10.440;2023-11-21T09:13:50;11.30;;;6.67;;
32106;SDS011;18622;51.998;10.440;2023-11-21T09:16:18;12.23;;;5.90;;
32106;SDS011;18622;51.998;10.440;2023-11-21T09:18:46;12.00;;;5.70;;
32106;SDS011;18622;51.998;10.440;2023-11-21T09:21:14;9.93;;;6.03;;
32106;SDS011;18622;51.998;10.440;2023-11-21T09:23:47;13.33;;;7.20;;
32106;SDS011;18622;51.998;10.440;2023-11-21T09:26:12;9.00;;;6.70;;
32106;SDS011;18622;51.998;10.440;2023-11-21T09:28:42;9.58;;;6.20;;
32106;SDS011;18622;51.998;10.440;2023-11-21T09:31:13;12.93;;;7.13;;
32106;SDS011;18622;51.998;10.440;2023-11-21T09:33:45;13.45;;;6.85;;
32106;SDS011;18622;51.998;10.440;2023-11-21T09:36:14;12.47;;;7.13;;
32106;SDS011;18622;51.998;10.440;2023-11-21T09:38:42;12.83;;;7.37;;
32106;SDS011;18622;51.998;10.440;2023-11-21T09:41:19;16.50;;;8.13;;
32106;SDS011;18622;51.998;10.440;2023-11-21T09:43:56;14.23;;;8.23;;
32106;SDS011;18622;51.998;10.440;2023-11-21T09:46:26;17.20;;;8.30;;
32106;SDS011;18622;51.998;10.440;2023-11-21T09:48:56;17.67;;;7.95;;
32106;SDS011;18622;51.998;10.440;2023-11-21T09:51:27;15.63;;;8.17;;
32106;SDS011;18622;51.998;10.440;2023-11-21T09:53:58;18.60;;;8.03;;
32106;SDS011;18622;51.998;10.440;2023-11-21T09:56:28;13.88;;;8.38;;
32106;SDS011;18622;51.998;10.440;2023-11-21T09:58:56;11.00;;;7.50;;
32106;SDS011;18622;51.998;10.440;2023-11-21T10:01:26;10.38;;;6.70;;
32106;SDS011;18622;51.998;10.440;2023-11-21T10:03:55;11.10;;;6.60;;
32106;SDS011;18622;51.998;10.440;2023-11-21T10:06:23;14.40;;;6.60;;
32106;SDS011;18622;51.998;10.440;2023-11-21T10:08:58;10.45;;;6.10;;
32106;SDS011;18622;51.998;10.440;2023-11-21T10:11:26;10.53;;;6.80;;
32106;SDS011;18622;51.998;10.440;2023-11-21T10:13:56;13.18;;;6.08;;
32106;SDS011;18622;51.998;10.440;2023-11-21T10:16:26;11.48;;;7.15;;
32106;SDS011;18622;51.998;10.440;2023-11-21T10:18:55;14.03;;;6.55;;
32106;SDS011;18622;51.998;10.440;2023-11-21T10:21:24;11.28;;;6.60;;
32106;SDS011;18622;51.998;10.440;2023-11-21T10:23:51;8.67;;;6.53;;
32106;SDS011;18622;51.998;10.440;2023-11-21T10:26:20;12.40;;;8.03;;
32106;SDS011;18622;51.998;10.440;2023-11-21T10:28:56;13.40;;;8.87;;
32106;SDS011;18622;51.998;10.440;2023-11-21T10:31:33;18.73;;;10.03;;
32106;SDS011;18622;51.998;10.440;2023-11-21T10:36:44;14.20;;;9.23;;
32106;SDS011;18622;51.998;10.440;2023-11-21T10:39:19;11.95;;;8.28;;
32106;SDS011;18622;51.998;10.440;2023-11-21T10:41:49;10.20;;;6.90;;
32106;SDS011;18622;51.998;10.440;2023-11-21T10:44:17;11.47;;;7.50;;
32106;SDS011;18622;51.998;10.440;2023-11-21T10:46:50;9.50;;;7.22;;
32106;SDS011;18622;51.998;10.440;2023-11-21T10:49:20;11.60;;;7.30;;
32106;SDS011;18622;51.998;10.440;2023-11-21T10:51:51;11.73;;;7.23;;
32106;SDS011;18622;51.998;10.440;2023-11-21T10:54:19;10.10;;;7.20;;
32106;SDS011;18622;51.998;10.440;2023-11-21T10:56:53;11.12;;;7.87;;
32106;SDS011;18622;51.998;10.440;2023-11-21T10:59:18;10.28;;;7.67;;
32106;SDS011;18622;51.998;10.440;2023-11-21T11:01:48;8.03;;;5.70;;
32106;SDS011;18622;51.998;10.440;2023-11-21T11:04:18;9.43;;;6.20;;
32106;SDS011;18622;51.998;10.440;2023-11-21T11:06:54;8.23;;;5.67;;
32106;SDS011;18622;51.998;10.440;2023-11-21T11:09:23;8.77;;;5.63;;
32106;SDS011;18622;51.998;10.440;2023-11-21T11:11:51;9.03;;;5.43;;
32106;SDS011;18622;51.998;10.440;2023-11-21T11:14:20;7.05;;;5.03;;
32106;SDS011;18622;51.998;10.440;2023-11-21T11:19:16;7.05;;;4.50;;
32106;SDS011;18622;51.998;10.440;2023-11-21T11:21:58;9.90;;;6.33;;
32106;SDS011;18622;51.998;10.440;2023-11-21T11:24:33;9.13;;;6.20;;
32106;SDS011;18622;51.998;10.440;2023-11-21T11:30:04;9.65;;;4.85;;
32106;SDS011;18622;51.998;10.440;2023-11-21T11:35:50;8.57;;;5.53;;
32106;SDS011;18622;51.998;10.440;2023-11-21T11:38:17;6.23;;;4.63;;
32106;SDS011;18622;51.998;10.440;2023-11-21T11:40:45;6.80;;;5.37;;
32106;SDS011;18622;51.998;10.440;2023-11-21T11:43:16;7.60;;;4.87;;
32106;SDS011;18622;51.998;10.440;2023-11-21T11:45:44;7.28;;;5.22;;
32106;SDS011;18622;51.998;10.440;2023-11-21T11:48:14;6.33;;;4.42;;
32106;SDS011;18622;51.998;10.440;2023-11-21T11:53:35;7.40;;;5.77;;
32106;SDS011;18622;51.998;10.440;2023-11-21T11:56:24;8.07;;;5.23;;
32106;SDS011;18622;51.998;10.440;2023-11-21T11:59:03;7.95;;;5.83;;
32106;SDS011;18622;51.998;10.440;2023-11-21T12:01:33;8.40;;;5.25;;
32106;SDS011;18622;51.998;10.440;2023-11-21T12:06:50;7.83;;;5.40;;
32106;SDS011;18622;51.998;10.440;2023-11-21T12:09:22;7.00;;;5.10;;
32106;SDS011;18622;51.998;10.440;2023-11-21T12:11:52;7.67;;;5.20;;
32106;SDS011;18622;51.998;10.440;2023-11-21T12:14:24;6.97;;;5.03;;
32106;SDS011;18622;51.998;10.440;2023-11-21T12:16:52;9.13;;;6.00;;
32106;SDS011;18622;51.998;10.440;2023-11-21T12:19:20;7.53;;;4.80;;
32106;SDS011;18622;51.998;10.440;2023-11-21T12:21:48;7.87;;;5.55;;
32106;SDS011;18622;51.998;10.440;2023-11-21T12:24:16;10.47;;;5.20;;
32106;SDS011;18622;51.998;10.440;2023-11-21T12:26:44;7.87;;;5.30;;
32106;SDS011;18622;51.998;10.440;2023-11-21T12:29:11;6.97;;;4.87;;
32106;SDS011;18622;51.998;10.440;2023-11-21T12:31:39;6.87;;;4.30;;
32106;SDS011;18622;51.998;10.440;2023-11-21T12:34:07;8.40;;;4.67;;
32106;SDS011;18622;51.998;10.440;2023-11-21T12:36:37;6.97;;;4.87;;
32106;SDS011;18622;51.998;10.440;2023-11-21T12:39:05;8.93;;;5.22;;
32106;SDS011;18622;51.998;10.440;2023-11-21T12:41:35;5.55;;;4.50;;
32106;SDS011;18622;51.998;10.440;2023-11-21T12:44:04;8.43;;;5.53;;
32106;SDS011;18622;51.998;10.440;2023-11-21T12:46:35;9.10;;;5.60;;
32106;SDS011;18622;51.998;10.440;2023-11-21T12:49:03;10.83;;;6.33;;
32106;SDS011;18622;51.998;10.440;2023-11-21T12:51:31;8.90;;;5.90;;
32106;SDS011;18622;51.998;10.440;2023-11-21T12:53:59;10.35;;;6.90;;
32106;SDS011;18622;51.998;10.440;2023-11-21T12:56:27;10.90;;;6.03;;
32106;SDS011;18622;51.998;10.440;2023-11-21T12:58:55;13.27;;;5.93;;
32106;SDS011;18622;51.998;10.440;2023-11-21T13:01:25;9.73;;;6.17;;
32106;SDS011;18622;51.998;10.440;2023-11-21T13:03:56;8.33;;;5.77;;
32106;SDS011;18622;51.998;10.440;2023-11-21T13:08:52;8.35;;;5.15;;
32106;SDS011;18622;51.998;10.440;2023-11-21T13:11:22;9.08;;;4.97;;
32106;SDS011;18622;51.998;10.440;2023-11-21T13:13:52;7.25;;;5.00;;
32106;SDS011;18622;51.998;10.440;2023-11-21T13:16:19;9.57;;;4.97;;
32106;SDS011;18622;51.998;10.440;2023-11-21T13:18:47;8.80;;;5.70;;
32106;SDS011;18622;51.998;10.440;2023-11-21T13:21:15;10.00;;;5.63;;
32106;SDS011;18622;51.998;10.440;2023-11-21T13:23:43;8.67;;;5.23;;
32106;SDS011;18622;51.998;10.440;2023-11-21T13:26:12;7.53;;;4.62;;
32106;SDS011;18622;51.998;10.440;2023-11-21T13:28:40;7.72;;;4.60;;
32106;SDS011;18622;51.998;10.440;2023-11-21T13:31:10;7.20;;;5.10;;
32106;SDS011;18622;51.998;10.440;2023-11-21T13:33:46;7.03;;;3.90;;
32106;SDS011;18622;51.998;10.440;2023-11-21T13:36:16;7.20;;;3.17;;
32106;SDS011;18622;51.998;10.440;2023-11-21T13:38:45;4.55;;;3.50;;
32106;SDS011;18622;51.998;10.440;2023-11-21T13:41:13;5.90;;;3.00;;
32106;SDS011;18622;51.998;10.440;2023-11-21T13:43:41;4.87;;;3.27;;
32106;SDS011;18622;51.998;10.440;2023-11-21T13:46:11;5.70;;;2.80;;
32106;SDS011;18622;51.998;10.440;2023-11-21T13:48:43;7.42;;;5.85;;
32106;SDS011;18622;51.998;10.440;2023-11-21T13:51:12;5.30;;;3.85;;
32106;SDS011;18622;51.998;10.440;2023-11-21T13:53:47;5.07;;;3.80;;
32106;SDS011;18622;51.998;10.440;2023-11-21T13:56:20;5.83;;;3.63;;
32106;SDS011;18622;51.998;10.440;2023-11-21T13:58:52;7.17;;;5.10;;
32106;SDS011;18622;51.998;10.440;2023-11-21T14:01:22;4.37;;;2.90;;
32106;SDS011;18622;51.998;10.440;2023-11-21T14:03:52;3.87;;;2.40;;
32106;SDS011;18622;51.998;10.440;2023-11-21T14:06:22;4.17;;;2.60;;
32106;SDS011;18622;51.998;10.440;2023-11-21T14:08:52;6.42;;;3.77;;
32106;SDS011;18622;51.998;10.440;2023-11-21T14:11:21;3.72;;;2.83;;
32106;SDS011;18622;51.998;10.440;2023-11-21T14:13:49;6.53;;;3.07;;
32106;SDS011;18622;51.998;10.440;2023-11-21T14:16:17;4.00;;;2.97;;
32106;SDS011;18622;51.998;10.440;2023-11-21T14:18:44;4.97;;;2.30;;
32106;SDS011;18622;51.998;10.440;2023-11-21T14:21:20;6.57;;;2.63;;
32106;SDS011;18622;51.998;10.440;2023-11-21T14:23:48;3.43;;;2.30;;
32106;SDS011;18622;51.998;10.440;2023-11-21T14:26:16;4.07;;;3.17;;
32106;SDS011;18622;51.998;10.440;2023-11-21T14:28:44;5.07;;;3.93;;
32106;SDS011;18622;51.998;10.440;2023-11-21T14:31:16;3.37;;;2.20;;
32106;SDS011;18622;51.998;10.440;2023-11-21T14:33:44;4.15;;;2.65;;
32106;SDS011;18622;51.998;10.440;2023-11-21T14:36:12;2.73;;;2.00;;
32106;SDS011;18622;51.998;10.440;2023-11-21T14:38:42;4.33;;;1.92;;
32106;SDS011;18622;51.998;10.440;2023-11-21T14:41:10;7.03;;;2.20;;
32106;SDS011;18622;51.998;10.440;2023-11-21T14:43:37;4.77;;;1.83;;
32106;SDS011;18622;51.998;10.440;2023-11-21T14:46:05;4.87;;;2.00;;
32106;SDS011;18622;51.998;10.440;2023-11-21T14:48:34;2.58;;;1.65;;
32106;SDS011;18622;51.998;10.440;2023-11-21T14:51:12;4.60;;;1.73;;
32106;SDS011;18622;51.998;10.440;2023-11-21T14:53:54;6.70;;;2.13;;
32106;SDS011;18622;51.998;10.440;2023-11-21T14:56:23;5.03;;;1.77;;
32106;SDS011;18622;51.998;10.440;2023-11-21T14:58:55;3.73;;;1.83;;
32106;SDS011;18622;51.998;10.440;2023-11-21T15:01:23;2.47;;;1.67;;
32106;SDS011;18622;51.998;10.440;2023-11-21T15:03:53;3.52;;;1.80;;
32106;SDS011;18622;51.998;10.440;2023-11-21T15:06:21;5.60;;;1.70;;
32106;SDS011;18622;51.998;10.440;2023-11-21T15:08:57;3.40;;;1.83;;
32106;SDS011;18622;51.998;10.440;2023-11-21T15:11:29;5.97;;;2.10;;
32106;SDS011;18622;51.998;10.440;2023-11-21T15:13:57;3.17;;;2.10;;
32106;SDS011;18622;51.998;10.440;2023-11-21T15:16:25;8.20;;;1.60;;
32106;SDS011;18622;51.998;10.440;2023-11-21T15:18:55;2.63;;;1.70;;
32106;SDS011;18622;51.998;10.440;2023-11-21T15:21:22;4.93;;;1.80;;
32106;SDS011;18622;51.998;10.440;2023-11-21T15:23:51;7.20;;;1.63;;
32106;SDS011;18622;51.998;10.440;2023-11-21T15:26:18;3.13;;;1.70;;
32106;SDS011;18622;51.998;10.440;2023-11-21T15:28:46;1.73;;;1.27;;
32106;SDS011;18622;51.998;10.440;2023-11-21T15:31:13;2.30;;;0.90;;
